Situação meteorológica que não inspira cuidado.   -   Não há avisos
14°C
Sevilla, Andalucía, España
Linguagem: pt English Français Deutsch Italiano Português Español
 

Nearby METAR Reports

 

LEZL - Sevilla, Spain
Distance from station: ENE 8km
Actualizado: 15/12/2018 19:30
Céu limpo
Céu limpo
 Vento de calm
Vento: Calmo
Temperatura: 12°C
Ponto de Orvalho: 9°C
Humidade: 82%
Barómetro: 1027 hPa
Resumo: Céu limpo
Visibility: greater than 10 km
2018/12/15 18:30 LEZL 151830Z 00000KT CAVOK 12/09 Q1027 NOSIG
LEMO - Morón, Spain
Distance from station: SE 43km
Actualizado: 15/12/2018 19:00
Céu limpo
Céu limpo
 Vento de NW
Vento: NW 6 km/h
Temperatura: 11°C
Ponto de Orvalho: 9°C
Humidade: 88%
Barómetro: 1027 hPa
Resumo: Céu limpo
Visibility: greater than 10 km
2018/12/15 18:00 LEMO 151800Z 32003KT CAVOK 11/09 Q1027 NOSIG
LEJR - Jeréz, Spain
Distance from station: S 71km
Actualizado: 15/12/2018 19:30
Céu limpo
Céu limpo
 Vento de N
Vento: N 6 km/h
Temperatura: 11°C
Ponto de Orvalho: 8°C
Humidade: 82%
Barómetro: 1028 hPa
Resumo: Céu limpo
Visibility: greater than 10 km
2018/12/15 18:30 LEJR 151830Z 36003KT CAVOK 11/08 Q1028
 
LERT - Rota, Spain
Distance from station: SSW 89km
Actualizado: 15/12/2018 19:00
Céu limpo
Céu limpo
 Vento de NW
Vento: NW 6 km/h
Temperatura: 13°C
Ponto de Orvalho: 9°C
Humidade: 77%
Barómetro: 1027 hPa
Resumo: Céu limpo
Visibility: greater than 10 km
2018/12/15 18:00 LERT 151800Z 32003KT CAVOK 13/09 Q1027 NOSIG
LEMG - Málaga, Spain
Distance from station: ESE 157km
Actualizado: 15/12/2018 19:30
Céu limpo
Céu limpo
 Vento de W
Vento: W 30 km/h
Temperatura: 17°C
Ponto de Orvalho: 8°C
Humidade: 56%
Barómetro: 1025 hPa
Resumo: Céu limpo
Visibility: greater than 10 km
2018/12/15 18:30 LEMG 151830Z 28016KT CAVOK 17/08 Q1025 NOSIG
LEBA - Córdoba, Spain
Distance from station: ENE 115km
Actualizado: 15/12/2018 19:30
Céu limpo
Céu limpo
 Vento de varies
Vento: varies 4 km/h
Temperatura: 9°C
Ponto de Orvalho: 7°C
Humidade: 87%
Barómetro: 1028 hPa
Clouds: Céu limpo
Visibility: 10 km
2018/12/15 18:30 LEBA 151830Z AUTO VRB02KT 9999 NCD 09/07 Q1028
 
LEGR - Granada, Spain
Distance from station: E 198km
Actualizado: 15/12/2018 19:30
Céu limpo
Céu limpo
 Vento de SSW
Vento: SSW 2 km/h
Temperatura: 7°C
Ponto de Orvalho: 5°C
Humidade: 87%
Barómetro: 1027 hPa
Resumo: Céu limpo
Visibility: greater than 10 km
2018/12/15 18:30 LEGR 151830Z 20001KT CAVOK 07/05 Q1027
LEAM - Almería, Spain
Distance from station: E 326km
Actualizado: 15/12/2018 19:30
Céu limpo
Céu limpo
 Vento de WSW
Vento: WSW 11 km/h
Temperatura: 14°C
Ponto de Orvalho: 11°C
Humidade: 82%
Barómetro: 1025 hPa
Resumo: Céu limpo
Visibility: greater than 10 km
2018/12/15 18:30 LEAM 151830Z 25006KT CAVOK 14/11 Q1025
LEMD - Madrid/Barajas, Spain
Distance from station: NNE 402km
Actualizado: 15/12/2018 19:30
Muito nublado
Muito nublado
 Vento de SSW
Vento: SSW 9 km/h
Temperatura: 9°C
Índice de frío: 7°C
Ponto de Orvalho: 9°C
Humidade: 100%
Barómetro: 1025 hPa
Clouds: Muito nublado
Visibility: 8 km
Cloud details: Few Clouds 244 m
Muito nublado 366 m
2018/12/15 18:30 LEMD 151830Z 21005KT 160V250 8000 FEW008 BKN012 09/09 Q1025 TEMPO 3000 BR DZ
 
LEVD - Valladolid, Spain
Distance from station: N 492km
Actualizado: 15/12/2018 19:30
Encoberto
Encoberto
 Vento de SW
Vento: SW 28 km/h
Temperatura: 9°C
Índice de frío: 6°C
Ponto de Orvalho: 7°C
Humidade: 87%
Barómetro: 1022 hPa
Clouds: Encoberto
Visibility: 10 km
Cloud details: Encoberto 427 m
2018/12/15 18:30 LEVD 151830Z 22015KT 9999 OVC014 09/07 Q1022
LEBL - Barcelona, Spain
Distance from station: NE 816km
Actualizado: 15/12/2018 19:30
Few Clouds
Few Clouds
 Vento de N
Vento: N 6 km/h
Temperatura: 11°C
Ponto de Orvalho: 7°C
Humidade: 77%
Barómetro: 1020 hPa
Clouds: Few Clouds
Visibility: 10 km
Cloud details: Few Clouds 1676 m
2018/12/15 18:30 LEBL 151830Z 35003KT 9999 FEW055 11/07 Q1020 NOSIG
LEVC - Valencia, Spain
Distance from station: ENE 535km
Actualizado: 15/12/2018 19:30
Céu limpo
Céu limpo
 Vento de SW
Vento: SW 19 km/h
Temperatura: 16°C
Ponto de Orvalho: 8°C
Humidade: 59%
Barómetro: 1021 hPa
Resumo: Céu limpo
Visibility: greater than 10 km
2018/12/15 18:30 LEVC 151830Z 22010KT 190V250 CAVOK 16/08 Q1021 NOSIG